Time;durP1;ratioP1;P1;durP2;ratioP2;P2;SDS_P1;SDS_P2;PMS_P1;PMS_P2;Temp;Humidity;BMP_temperature;BMP_pressure;BME280_temperature;BME280_humidity;BME280_pressure;Samples;Min_cycle;Max_cycle;Signal;HPM_P1;HPM_P2
2021/12/13 00:02:05;;;;;;;16.25;4.78;;;;;;;3.81;100.00;97459.25;5092438;28;20126;-71
2021/12/13 00:04:37;;;;;;;13.48;4.40;;;;;;;3.76;100.00;97461.63;5081407;28;20039;-71
2021/12/13 00:07:26;;;;;;;11.60;4.05;;;;;;;3.75;100.00;97460.00;5095405;28;20088;-70
2021/12/13 00:09:56;;;;;;;15.73;3.60;;;;;;;3.78;100.00;97456.97;5080025;28;20386;-70
2021/12/13 00:12:36;;;;;;;7.78;3.92;;;;;;;3.80;100.00;97452.31;5093410;28;20032;-70
2021/12/13 00:15:11;;;;;;;29.70;4.90;;;;;;;3.85;100.00;97456.06;5096645;28;20247;-71
2021/12/13 00:17:50;;;;;;;8.35;4.20;;;;;;;3.94;100.00;97453.31;5094813;28;20366;-70
2021/12/13 00:20:41;;;;;;;8.20;3.83;;;;;;;3.99;100.00;97448.31;5094076;28;20047;-70
2021/12/13 00:23:31;;;;;;;8.77;4.40;;;;;;;4.03;100.00;97458.34;5093791;28;20040;-72
2021/12/13 00:26:01;;;;;;;38.00;4.35;;;;;;;4.06;100.00;97455.34;5094408;28;20623;-70
2021/12/13 00:28:33;;;;;;;17.80;3.38;;;;;;;3.92;100.00;97443.75;5094021;28;20707;-71
2021/12/13 00:31:43;;;;;;;7.43;4.20;;;;;;;3.97;100.00;97456.44;5091485;28;20036;-72
2021/12/13 00:34:33;;;;;;;6.05;3.72;;;;;;;3.97;100.00;97452.94;4966645;28;20476;-70
2021/12/13 00:37:20;;;;;;;6.82;3.40;;;;;;;4.05;100.00;97458.19;5094121;28;20052;-70
2021/12/13 00:39:56;;;;;;;6.75;3.42;;;;;;;4.06;100.00;97451.88;5094202;28;20055;-71
2021/12/13 00:42:26;;;;;;;9.98;3.80;;;;;;;4.01;100.00;97449.78;5093274;28;20043;-73
2021/12/13 00:44:57;;;;;;;8.10;3.70;;;;;;;3.97;100.00;97437.91;5091479;28;20036;-70
2021/12/13 00:47:26;;;;;;;8.88;3.40;;;;;;;4.04;100.00;97444.09;5091351;28;20516;-73
2021/12/13 00:50:08;;;;;;;9.75;3.15;;;;;;;3.96;100.00;97440.72;5094300;28;20057;-71
2021/12/13 00:52:37;;;;;;;7.45;3.45;;;;;;;4.06;100.00;97446.59;5097234;28;20322;-71
2021/12/13 00:55:16;;;;;;;8.80;3.85;;;;;;;4.05;100.00;97445.75;5097987;28;20542;-70
2021/12/13 00:58:05;;;;;;;22.77;4.32;;;;;;;4.12;100.00;97459.06;5097619;28;20035;-74
2021/12/13 01:00:35;;;;;;;26.05;5.10;;;;;;;4.12;100.00;97459.88;5101061;28;20415;-72
2021/12/13 01:03:08;;;;;;;8.18;4.15;;;;;;;4.08;100.00;97455.16;5097361;28;20686;-74
2021/12/13 01:05:46;;;;;;;42.53;4.78;;;;;;;4.05;100.00;97461.66;5096411;28;20034;-72
2021/12/13 01:08:30;;;;;;;9.20;3.83;;;;;;;4.05;100.00;97464.31;5097557;28;20139;-74
2021/12/13 01:11:11;;;;;;;6.30;2.65;;;;;;;4.00;100.00;97465.84;5095730;28;20047;-73
2021/12/13 01:13:40;;;;;;;8.65;3.42;;;;;;;4.09;100.00;97462.09;5098000;28;20035;-72
2021/12/13 01:17:13;;;;;;;5.32;3.00;;;;;;;4.11;100.00;97458.25;5095893;28;20405;-73
2021/12/13 01:19:55;;;;;;;7.00;2.95;;;;;;;4.15;100.00;97462.19;5082139;28;20067;-72
2021/12/13 01:23:06;;;;;;;5.00;2.60;;;;;;;4.24;100.00;97464.75;5097089;28;20430;-72
2021/12/13 01:28:14;;;;;;;5.05;2.60;;;;;;;4.30;100.00;97466.66;5097214;28;20052;-72
2021/12/13 01:30:49;;;;;;;40.00;3.35;;;;;;;4.30;100.00;97466.66;5097429;28;20040;-72
2021/12/13 01:33:17;;;;;;;8.07;2.72;;;;;;;4.30;100.00;97471.97;5096075;28;20039;-72
2021/12/13 01:35:47;;;;;;;5.82;3.03;;;;;;;4.33;100.00;97466.28;5079120;28;20024;-72
2021/12/13 01:38:17;;;;;;;6.28;3.08;;;;;;;4.35;100.00;97478.34;5096117;28;20122;-74
2021/12/13 01:40:48;;;;;;;5.53;3.08;;;;;;;4.33;100.00;97479.53;5094881;28;20065;-72
2021/12/13 01:43:20;;;;;;;4.30;2.45;;;;;;;4.22;100.00;97480.00;5094626;28;20051;-73
2021/12/13 01:45:48;;;;;;;9.45;2.80;;;;;;;4.10;100.00;97479.63;5098649;28;20043;-73
2021/12/13 01:48:28;;;;;;;6.10;3.08;;;;;;;4.04;100.00;97485.66;5097621;28;20023;-72
2021/12/13 01:51:04;;;;;;;5.30;2.92;;;;;;;4.09;100.00;97489.41;5097449;27;20054;-73
2021/12/13 01:53:54;;;;;;;6.50;2.85;;;;;;;4.07;100.00;97486.13;5095714;28;20331;-72
2021/12/13 02:02:43;;;;;;;20.60;3.10;;;;;;;4.12;100.00;97483.72;5062847;27;20059;-72
2021/12/13 02:05:19;;;;;;;10.55;3.08;;;;;;;4.03;100.00;97492.78;5096009;28;20036;-72
2021/12/13 02:07:48;;;;;;;4.28;2.50;;;;;;;4.08;100.00;97490.41;5096053;28;20214;-72
2021/12/13 02:10:51;;;;;;;14.27;2.83;;;;;;;4.09;100.00;97494.72;5096210;28;20385;-73
2021/12/13 02:13:33;;;;;;;4.35;2.53;;;;;;;4.05;100.00;97496.09;4998477;28;20482;-72
2021/12/13 02:18:52;;;;;;;6.50;3.10;;;;;;;4.09;100.00;97488.59;5097699;28;20036;-73
2021/12/13 02:21:31;;;;;;;9.73;3.30;;;;;;;4.02;100.00;97490.31;5098256;28;20401;-73
2021/12/13 02:24:10;;;;;;;7.70;3.55;;;;;;;4.07;100.00;97491.44;5095903;28;20370;-72
2021/12/13 02:26:41;;;;;;;7.18;3.55;;;;;;;4.01;100.00;97491.31;5095673;28;20044;-72
2021/12/13 02:29:17;;;;;;;6.25;3.40;;;;;;;4.09;100.00;97489.41;5096150;28;20425;-73
2021/12/13 02:31:44;;;;;;;10.15;3.50;;;;;;;4.08;100.00;97481.66;5094873;28;20118;-72
2021/12/13 02:34:13;;;;;;;11.90;3.50;;;;;;;4.07;100.00;97483.47;5095074;28;20436;-73
2021/12/13 02:36:43;;;;;;;8.48;3.72;;;;;;;4.12;100.00;97485.56;5096098;28;20720;-72
2021/12/13 02:39:19;;;;;;;11.15;3.67;;;;;;;4.16;100.00;97495.63;5093928;28;20035;-73
2021/12/13 02:41:45;;;;;;;7.15;3.78;;;;;;;4.15;100.00;97493.16;5095388;28;20038;-75
2021/12/13 02:44:17;;;;;;;17.00;3.45;;;;;;;4.17;100.00;97499.91;5097731;28;20051;-73
2021/12/13 02:46:43;;;;;;;14.05;3.53;;;;;;;4.17;100.00;97491.97;5085887;28;20036;-73
2021/12/13 02:49:14;;;;;;;18.55;3.47;;;;;;;4.16;100.00;97494.81;5094195;28;20027;-72
2021/12/13 02:51:43;;;;;;;10.10;3.72;;;;;;;4.16;100.00;97492.97;5096652;28;20129;-72
2021/12/13 02:54:40;;;;;;;8.23;3.75;;;;;;;4.24;100.00;97494.72;5094662;28;20039;-73
2021/12/13 02:57:11;;;;;;;7.30;3.70;;;;;;;4.16;100.00;97495.63;5094376;28;20133;-72
2021/12/13 02:59:41;;;;;;;6.10;3.43;;;;;;;4.22;100.00;97496.72;5095683;28;20040;-73
2021/12/13 03:02:20;;;;;;;9.25;4.05;;;;;;;4.27;100.00;97494.34;5094411;28;20779;-72
2021/12/13 03:04:48;;;;;;;18.55;3.92;;;;;;;4.30;100.00;97488.69;5095678;28;20063;-72
2021/12/13 03:07:22;;;;;;;75.55;4.85;;;;;;;4.28;100.00;97497.81;5094275;28;20066;-73
2021/12/13 03:09:52;;;;;;;25.27;4.90;;;;;;;4.29;100.00;97492.34;5076019;28;20040;-72
2021/12/13 03:12:21;;;;;;;57.75;6.43;;;;;;;4.28;100.00;97498.66;5095827;28;20020;-72
2021/12/13 03:14:56;;;;;;;10.00;3.92;;;;;;;4.28;100.00;97497.81;5095336;28;20038;-73
2021/12/13 03:17:27;;;;;;;49.20;4.28;;;;;;;4.28;100.00;97490.69;5100276;28;20123;-72
2021/12/13 03:19:59;;;;;;;;;;;;;;;4.25;100.00;97496.34;5097631;28;20040;-74
2021/12/13 03:23:02;;;;;;;45.20;4.72;;;;;;;4.24;100.00;97496.53;5099130;28;19907;-72
2021/12/13 03:25:39;;;;;;;23.25;4.13;;;;;;;4.27;100.00;97499.63;5093975;28;20061;-72
2021/12/13 03:28:43;;;;;;;21.90;4.65;;;;;;;4.32;100.00;97497.25;5093895;28;20048;-73
2021/12/13 03:31:12;;;;;;;75.70;4.70;;;;;;;4.30;100.00;97491.34;5093711;28;20040;-74
2021/12/13 03:33:54;;;;;;;56.75;4.95;;;;;;;4.17;100.00;97497.25;5096475;28;20048;-72
2021/12/13 03:36:22;;;;;;;;;;;;;;;4.22;100.00;97496.72;5079722;28;20588;-72
2021/12/13 03:38:54;;;;;;;29.25;4.82;;;;;;;4.23;100.00;97490.41;5093844;28;19916;-72
2021/12/13 03:41:23;;;;;;;48.67;5.18;;;;;;;4.29;100.00;97499.47;5093721;28;20036;-72
2021/12/13 03:43:49;;;;;;;84.40;5.82;;;;;;;4.29;100.00;97499.47;5093838;28;20044;-75
2021/12/13 03:46:17;;;;;;;53.35;7.00;;;;;;;4.21;100.00;97499.56;5094818;28;20318;-74
2021/12/13 03:48:44;;;;;;;94.18;8.98;;;;;;;4.21;100.00;97497.75;5096036;28;20442;-72
2021/12/13 03:51:14;;;;;;;135.73;7.72;;;;;;;4.19;100.00;97500.53;5094716;28;20039;-74
2021/12/13 03:53:44;;;;;;;125.65;8.05;;;;;;;4.15;100.00;97501.94;5095039;28;20071;-72
2021/12/13 03:56:14;;;;;;;105.57;5.80;;;;;;;4.19;100.00;97495.25;5094845;28;20064;-73
2021/12/13 03:58:46;;;;;;;96.07;5.85;;;;;;;4.23;100.00;97500.19;5094248;28;20532;-72
2021/12/13 04:01:44;;;;;;;177.38;7.00;;;;;;;4.19;100.00;97499.72;5092528;28;22071;-72
2021/12/13 04:04:20;;;;;;;68.10;5.28;;;;;;;4.23;100.00;97497.56;5096329;28;20040;-72
2021/12/13 04:06:51;;;;;;;20.83;3.70;;;;;;;4.14;100.00;97497.63;5095007;28;20047;-72
2021/12/13 04:09:18;;;;;;;6.63;3.60;;;;;;;4.21;100.00;97502.22;5094913;28;20575;-75
2021/12/13 04:11:45;;;;;;;8.18;3.13;;;;;;;4.15;100.00;97493.97;5096331;28;20056;-72
2021/12/13 04:14:18;;;;;;;6.95;3.05;;;;;;;4.08;100.00;97502.84;5092485;28;20040;-74
2021/12/13 04:17:07;;;;;;;7.10;3.17;;;;;;;4.16;100.00;97510.69;5094392;28;20036;-72
2021/12/13 04:19:55;;;;;;;7.00;3.20;;;;;;;4.16;100.00;97511.53;5094554;28;20114;-72
2021/12/13 04:22:25;;;;;;;6.38;3.05;;;;;;;4.19;100.00;97515.63;5093732;28;20346;-72
2021/12/13 04:25:00;;;;;;;9.20;3.80;;;;;;;4.24;100.00;97521.22;5094242;28;21446;-72
2021/12/13 04:27:31;;;;;;;7.00;3.50;;;;;;;4.31;100.00;97518.66;5097157;28;20581;-72
2021/12/13 04:30:27;;;;;;;8.07;3.20;;;;;;;4.31;100.00;97530.06;5098681;28;20035;-72
2021/12/13 04:32:57;;;;;;;11.45;3.42;;;;;;;4.33;100.00;97524.59;5092165;28;20143;-72
2021/12/13 04:35:24;;;;;;;11.25;4.10;;;;;;;4.31;100.00;97519.47;5098109;28;20129;-75
2021/12/13 04:37:54;;;;;;;58.83;5.13;;;;;;;4.29;100.00;97525.97;5097394;28;20060;-72
2021/12/13 04:40:24;;;;;;;6.95;3.75;;;;;;;4.26;100.00;97526.31;5100379;28;20043;-72
2021/12/13 04:43:13;;;;;;;7.72;3.85;;;;;;;4.28;100.00;97524.31;5098120;28;20056;-73
2021/12/13 04:45:42;;;;;;;7.70;3.67;;;;;;;4.30;100.00;97528.44;5097631;28;20453;-73
2021/12/13 04:48:12;;;;;;;7.75;4.03;;;;;;;4.26;100.00;97527.13;5095571;28;20459;-72
2021/12/13 04:50:48;;;;;;;10.10;4.80;;;;;;;4.21;100.00;97528.72;5097731;28;20084;-72
2021/12/13 04:53:47;;;;;;;10.70;5.75;;;;;;;4.13;100.00;97529.63;5096214;28;20036;-72
2021/12/13 04:56:25;;;;;;;10.45;5.10;;;;;;;4.15;100.00;97524.94;5096482;28;20043;-72
2021/12/13 04:58:53;;;;;;;8.68;4.35;;;;;;;4.12;100.00;97534.06;5097649;28;20438;-72
2021/12/13 05:01:21;;;;;;;7.13;3.97;;;;;;;4.18;100.00;97538.66;5097720;28;20059;-72
2021/12/13 05:03:55;;;;;;;9.93;4.20;;;;;;;4.26;100.00;97537.75;5097289;28;20031;-72
2021/12/13 05:06:25;;;;;;;20.40;4.45;;;;;;;4.21;100.00;97545.44;5098319;28;20127;-74
2021/12/13 05:08:54;;;;;;;16.88;5.47;;;;;;;4.14;100.00;97539.22;5081792;28;20032;-72
2021/12/13 05:11:20;;;;;;;13.10;4.60;;;;;;;4.16;100.00;97539.84;5095856;28;20496;-72
2021/12/13 05:13:53;;;;;;;22.15;5.55;;;;;;;4.11;100.00;97548.31;5082022;28;20027;-73
2021/12/13 05:16:28;;;;;;;11.73;5.47;;;;;;;4.12;100.00;97549.97;5099491;28;20036;-73
2021/12/13 05:18:56;;;;;;;17.98;7.25;;;;;;;4.13;100.00;97541.03;5096715;28;20097;-73
2021/12/13 05:21:32;;;;;;;64.57;6.75;;;;;;;4.20;100.00;97549.06;5095167;28;20031;-74
2021/12/13 05:24:02;;;;;;;11.65;4.68;;;;;;;4.11;100.00;97550.97;5095761;28;20043;-72
2021/12/13 05:26:56;;;;;;;16.83;5.93;;;;;;;4.14;100.00;97557.75;5097451;28;20024;-72
2021/12/13 05:29:21;;;;;;;16.55;7.72;;;;;;;4.22;100.00;97556.84;5093860;28;20061;-73
2021/12/13 05:31:53;;;;;;;12.60;7.22;;;;;;;4.23;100.00;97559.31;5099239;28;20869;-74
2021/12/13 05:34:20;;;;;;;8.77;4.47;;;;;;;4.28;100.00;97553.44;5083323;28;20030;-72
2021/12/13 05:36:56;;;;;;;15.77;8.80;;;;;;;4.13;100.00;97550.81;5098948;28;20113;-73
2021/12/13 05:39:22;;;;;;;17.35;4.65;;;;;;;4.07;100.00;97551.53;5097827;28;20105;-73
2021/12/13 05:41:54;;;;;;;40.97;7.93;;;;;;;4.10;100.00;97546.69;5099031;27;20055;-72
2021/12/13 05:44:27;;;;;;;14.48;5.57;;;;;;;4.11;100.00;97552.78;5097532;28;20040;-72
2021/12/13 05:46:54;;;;;;;20.80;8.98;;;;;;;4.02;100.00;97545.94;5095241;28;20044;-73
2021/12/13 05:49:25;;;;;;;33.30;11.88;;;;;;;3.88;100.00;97556.31;5097066;28;20059;-72
2021/12/13 05:51:56;;;;;;;32.95;6.15;;;;;;;3.86;100.00;97560.97;5096014;28;20277;-74
2021/12/13 05:54:28;;;;;;;42.33;6.47;;;;;;;3.82;100.00;97558.88;5095890;28;20481;-72
2021/12/13 05:57:01;;;;;;;23.15;6.95;;;;;;;3.81;100.00;97550.13;5098576;28;20043;-73
2021/12/13 05:59:33;;;;;;;34.50;4.95;;;;;;;3.78;100.00;97550.47;5096676;28;20039;-72
2021/12/13 06:02:18;;;;;;;78.13;6.82;;;;;;;3.80;100.00;97553.75;5095676;28;20040;-72
2021/12/13 06:05:06;;;;;;;38.50;8.82;;;;;;;3.81;100.00;97551.91;5100063;27;20774;-74
2021/12/13 06:07:36;;;;;;;40.75;7.03;;;;;;;3.77;100.00;97558.59;5096129;28;20062;-72
2021/12/13 06:10:18;;;;;;;25.63;8.23;;;;;;;3.83;100.00;97558.69;5098379;28;20145;-72
2021/12/13 06:12:54;;;;;;;33.05;14.68;;;;;;;3.89;100.00;97547.41;5095559;28;20474;-74
2021/12/13 06:15:35;;;;;;;31.45;11.00;;;;;;;4.00;100.00;97553.25;5078271;28;20032;-73
2021/12/13 06:18:03;;;;;;;22.13;9.75;;;;;;;4.01;100.00;97552.25;5095029;28;20470;-74
2021/12/13 06:20:37;;;;;;;19.50;8.32;;;;;;;4.03;100.00;97558.19;5099169;27;20110;-71
2021/12/13 06:23:13;;;;;;;24.08;9.23;;;;;;;4.07;100.00;97560.28;5095201;28;20040;-72
2021/12/13 06:25:41;;;;;;;14.45;5.30;;;;;;;4.03;100.00;97563.47;5098312;28;20462;-72
2021/12/13 06:28:17;;;;;;;20.13;8.73;;;;;;;4.08;100.00;97566.41;5094412;28;20036;-72
2021/12/13 06:30:52;;;;;;;14.50;7.53;;;;;;;4.14;100.00;97571.00;5096312;28;20036;-72
2021/12/13 06:33:18;;;;;;;22.33;10.13;;;;;;;4.00;100.00;97569.97;5096530;28;20121;-72
2021/12/13 06:35:46;;;;;;;19.60;8.95;;;;;;;3.95;100.00;97563.56;5096504;28;20032;-72
2021/12/13 06:38:32;;;;;;;14.38;7.60;;;;;;;3.94;100.00;97562.72;5094909;28;20313;-72
2021/12/13 06:41:15;;;;;;;9.18;4.80;;;;;;;3.88;100.00;97566.91;5094326;28;20079;-72
2021/12/13 06:43:52;;;;;;;8.00;4.10;;;;;;;3.90;100.00;97570.22;5096687;28;20481;-71
2021/12/13 06:46:24;;;;;;;17.90;8.38;;;;;;;3.83;100.00;97569.28;5093551;28;20043;-74
2021/12/13 06:49:11;;;;;;;10.57;4.30;;;;;;;3.95;100.00;97563.56;5095337;28;20098;-72
2021/12/13 06:51:42;;;;;;;9.55;4.57;;;;;;;3.97;100.00;97565.03;5095970;28;20473;-72
2021/12/13 06:54:24;;;;;;;8.18;3.97;;;;;;;4.05;100.00;97567.59;5093495;28;20115;-72
2021/12/13 06:57:05;;;;;;;8.23;4.13;;;;;;;4.05;100.00;97562.31;5091686;28;20554;-72
2021/12/13 06:59:34;;;;;;;12.43;4.22;;;;;;;4.08;100.00;97577.00;5094877;28;20044;-73
2021/12/13 07:02:11;;;;;;;15.02;4.45;;;;;;;3.96;100.00;97566.00;5092241;28;20043;-72
2021/12/13 07:04:52;;;;;;;23.73;4.60;;;;;;;4.03;100.00;97577.53;5094887;28;20035;-73
2021/12/13 07:07:22;;;;;;;69.35;6.68;;;;;;;4.01;100.00;97576.91;5094187;28;20035;-72
2021/12/13 07:09:56;;;;;;;29.10;4.40;;;;;;;3.98;100.00;97574.63;5093400;28;20043;-71
2021/12/13 07:12:24;;;;;;;19.10;5.07;;;;;;;3.99;100.00;97570.16;5094728;28;20043;-72
2021/12/13 07:14:50;;;;;;;21.13;4.25;;;;;;;3.95;100.00;97576.78;5094833;28;20085;-72
2021/12/13 07:17:22;;;;;;;23.88;3.90;;;;;;;3.95;100.00;97571.50;5094004;28;20573;-75
2021/12/13 07:19:50;;;;;;;12.18;4.20;;;;;;;3.97;100.00;97575.63;5076287;28;20131;-72
2021/12/13 07:22:25;;;;;;;21.10;3.83;;;;;;;3.98;100.00;97584.41;5075041;28;20109;-72
2021/12/13 07:25:00;;;;;;;13.02;3.58;;;;;;;4.04;100.00;97592.44;5078472;28;20040;-73
2021/12/13 07:27:33;;;;;;;12.30;3.92;;;;;;;3.91;100.00;97590.41;5095980;28;20047;-72
2021/12/13 07:30:13;;;;;;;10.20;4.07;;;;;;;4.00;100.00;97596.44;5095685;28;20058;-72
2021/12/13 07:32:45;;;;;;;22.75;4.60;;;;;;;4.01;100.00;97600.75;5095242;28;20044;-72
2021/12/13 07:35:20;;;;;;;10.27;4.20;;;;;;;4.09;100.00;97598.03;5078168;28;20405;-72
2021/12/13 07:38:05;;;;;;;8.73;4.43;;;;;;;4.12;100.00;97589.69;5095207;28;20032;-73
2021/12/13 07:40:30;;;;;;;11.23;4.95;;;;;;;4.12;100.00;97584.41;5091697;28;20047;-72
2021/12/13 07:43:05;;;;;;;12.10;4.97;;;;;;;4.17;100.00;97597.94;5077954;28;20051;-72
2021/12/13 07:45:35;;;;;;;11.57;4.15;;;;;;;4.24;100.00;97598.03;5092955;28;20044;-72
2021/12/13 07:48:10;;;;;;;9.45;4.10;;;;;;;4.23;100.00;97601.69;5092939;28;20044;-72
2021/12/13 07:50:36;;;;;;;9.02;3.83;;;;;;;4.26;100.00;97601.34;5094130;28;20476;-74
2021/12/13 07:53:06;;;;;;;10.95;3.53;;;;;;;4.18;100.00;97604.06;5092133;28;20436;-71
2021/12/13 07:55:32;;;;;;;8.05;3.40;;;;;;;4.19;100.00;97605.69;5093232;28;20024;-73
2021/12/13 07:58:02;;;;;;;9.75;3.20;;;;;;;4.12;100.00;97594.19;5092050;28;20036;-72
2021/12/13 08:00:39;;;;;;;6.97;3.20;;;;;;;4.12;100.00;97607.41;5096661;28;20032;-72
2021/12/13 08:03:12;;;;;;;7.75;3.60;;;;;;;4.16;100.00;97614.03;5100076;27;20492;-72
2021/12/13 08:05:51;;;;;;;9.10;3.40;;;;;;;4.14;100.00;97614.22;5097657;28;20483;-73
2021/12/13 08:08:19;;;;;;;7.78;2.90;;;;;;;4.24;100.00;97615.78;5096599;28;20024;-72
2021/12/13 08:10:46;;;;;;;7.18;3.08;;;;;;;4.32;100.00;97621.00;5097492;28;20201;-72
2021/12/13 08:13:17;;;;;;;7.65;2.92;;;;;;;4.34;100.00;97619.78;5096484;28;20047;-72
2021/12/13 08:16:21;;;;;;;;;;;;;;;4.33;100.00;97623.47;5098308;28;20046;-72
2021/12/13 08:18:47;;;;;;;7.65;3.55;;;;;;;4.42;100.00;97610.94;4986160;28;19924;-73
2021/12/13 08:21:22;;;;;;;7.93;3.58;;;;;;;4.46;100.00;97623.66;4969109;28;20156;-72
2021/12/13 08:23:52;;;;;;;9.02;3.97;;;;;;;4.51;100.00;97623.09;5043350;28;20490;-72
2021/12/13 08:26:53;;;;;;;17.65;3.60;;;;;;;4.46;100.00;97622.84;5086995;28;20035;-72
2021/12/13 08:29:27;;;;;;;8.70;3.80;;;;;;;4.54;100.00;97627.25;5080342;27;20051;-73
2021/12/13 08:31:56;;;;;;;9.88;4.03;;;;;;;4.51;100.00;97631.06;5096394;28;20591;-74
2021/12/13 08:34:28;;;;;;;13.27;4.20;;;;;;;4.44;100.00;97630.16;5099018;28;20040;-74
2021/12/13 08:36:54;;;;;;;10.60;4.00;;;;;;;4.47;100.00;97630.59;5095080;28;20138;-72
2021/12/13 08:39:25;;;;;;;11.75;4.05;;;;;;;4.57;100.00;97626.84;5078446;28;20427;-74
2021/12/13 08:41:55;;;;;;;13.15;4.43;;;;;;;4.62;100.00;97641.22;5094031;28;20039;-74
2021/12/13 08:44:24;;;;;;;11.70;5.37;;;;;;;4.68;100.00;97637.84;5096812;28;20063;-73
2021/12/13 08:46:55;;;;;;;14.20;5.03;;;;;;;4.73;100.00;97640.75;5097358;28;20044;-72
2021/12/13 08:49:30;;;;;;;14.07;5.30;;;;;;;4.70;100.00;97637.66;5097846;28;20043;-72
2021/12/13 08:52:11;;;;;;;20.55;6.43;;;;;;;4.79;100.00;97649.00;5099493;28;20082;-72
2021/12/13 08:55:01;;;;;;;24.88;8.35;;;;;;;4.79;100.00;97652.47;5100423;28;20043;-72
2021/12/13 08:57:26;;;;;;;32.90;6.05;;;;;;;4.73;100.00;97646.06;5100614;28;20373;-72
2021/12/13 08:59:54;;;;;;;13.68;5.20;;;;;;;4.66;100.00;97652.28;5098118;28;20102;-72
2021/12/13 09:02:23;;;;;;;14.57;5.53;;;;;;;4.63;100.00;97640.22;5087388;28;20816;-72
2021/12/13 09:05:02;;;;;;;18.63;6.28;;;;;;;4.68;100.00;97648.47;5099880;28;20043;-72
2021/12/13 09:07:28;;;;;;;22.63;7.47;;;;;;;4.70;100.00;97662.34;5097961;28;20119;-73
2021/12/13 09:09:55;;;;;;;13.77;5.82;;;;;;;4.72;100.00;97660.34;5097143;28;20714;-72
2021/12/13 09:12:47;;;;;;;22.95;6.70;;;;;;;4.79;100.00;97662.25;5094523;28;20048;-72
2021/12/13 09:15:24;;;;;;;24.00;6.85;;;;;;;4.78;100.00;97656.13;5090494;28;20413;-72
2021/12/13 09:17:51;;;;;;;15.02;5.63;;;;;;;4.78;100.00;97660.63;5091600;28;20039;-73
2021/12/13 09:20:28;;;;;;;41.33;6.90;;;;;;;4.66;100.00;97660.22;5098659;28;20027;-73
2021/12/13 09:23:06;;;;;;;21.17;10.88;;;;;;;4.72;100.00;97668.28;5096105;28;20378;-72
2021/12/13 09:25:38;;;;;;;24.17;4.45;;;;;;;4.53;100.00;97660.88;5097445;27;20032;-73
2021/12/13 09:28:21;;;;;;;8.98;4.32;;;;;;;4.59;100.00;97667.25;5097377;28;20466;-72
2021/12/13 09:30:53;;;;;;;20.05;5.40;;;;;;;4.62;100.00;97656.31;5093211;28;20040;-73
2021/12/13 09:33:21;;;;;;;14.68;5.85;;;;;;;4.70;100.00;97666.84;5094227;28;20466;-72
2021/12/13 09:35:59;;;;;;;56.85;5.63;;;;;;;4.62;100.00;97656.31;5094942;28;20035;-72
2021/12/13 09:39:04;;;;;;;55.65;6.10;;;;;;;4.69;100.00;97657.22;5095720;28;20042;-71
2021/12/13 09:41:57;;;;;;;45.10;4.85;;;;;;;4.81;100.00;97658.41;5094808;28;20059;-72
2021/12/13 09:44:54;;;;;;;55.03;5.50;;;;;;;4.82;100.00;97662.72;5095836;28;20044;-72
2021/12/13 09:47:23;;;;;;;69.03;5.32;;;;;;;4.70;100.00;97665.00;5095596;28;20085;-72
2021/12/13 09:50:14;;;;;;;70.13;4.65;;;;;;;4.53;100.00;97671.47;5093736;28;20066;-72
2021/12/13 09:52:56;;;;;;;129.90;6.28;;;;;;;4.38;100.00;97662.69;5095273;28;20113;-73
2021/12/13 09:55:26;;;;;;;79.95;4.85;;;;;;;4.50;100.00;97658.56;5096956;28;20271;-72
2021/12/13 09:58:07;;;;;;;23.83;4.70;;;;;;;4.68;100.00;97661.72;5096325;27;20040;-73
2021/12/13 10:00:41;;;;;;;20.02;5.10;;;;;;;4.69;100.00;97665.19;5095379;28;20035;-74
2021/12/13 10:03:17;;;;;;;15.38;5.07;;;;;;;4.57;100.00;97656.84;5095109;28;20042;-72
2021/12/13 10:05:50;;;;;;;13.27;4.20;;;;;;;4.54;100.00;97653.75;5097927;28;20488;-72
2021/12/13 10:08:27;;;;;;;14.25;4.00;;;;;;;4.52;100.00;97643.31;5093235;28;20044;-74
2021/12/13 10:11:05;;;;;;;12.18;3.95;;;;;;;4.65;100.00;97643.50;5092178;28;20036;-72
2021/12/13 10:13:38;;;;;;;8.25;3.75;;;;;;;4.74;100.00;97642.41;3774023;28;10020778;-72
2021/12/13 10:16:08;;;;;;;15.68;3.75;;;;;;;4.82;100.00;97641.50;2092911;28;10002013;-73
2021/12/13 10:18:37;;;;;;;13.25;3.08;;;;;;;4.72;100.00;97636.47;5056181;28;20094;-71
2021/12/13 10:21:13;;;;;;;34.47;3.25;;;;;;;4.81;100.00;97644.31;5055225;28;20040;-73
2021/12/13 10:23:42;;;;;;;48.50;4.13;;;;;;;4.79;100.00;97649.00;5059002;28;20064;-72
2021/12/13 10:26:10;;;;;;;10.02;4.22;;;;;;;4.87;100.00;97651.56;5060096;28;20113;-72
2021/12/13 10:28:39;;;;;;;13.30;3.25;;;;;;;4.94;100.00;97655.13;5059604;28;20047;-72
2021/12/13 10:31:11;;;;;;;9.13;3.38;;;;;;;4.99;100.00;97650.09;5058342;28;20052;-71
2021/12/13 10:33:38;;;;;;;11.63;3.60;;;;;;;5.06;100.00;97640.41;5057834;28;20028;-72
2021/12/13 10:36:06;;;;;;;6.85;2.88;;;;;;;5.15;100.00;97641.94;5057285;28;20028;-73
2021/12/13 10:38:40;;;;;;;13.52;2.95;;;;;;;5.17;100.00;97631.97;5058241;28;20375;-72
2021/12/13 10:41:12;;;;;;;20.75;3.67;;;;;;;5.12;100.00;97639.63;5058827;28;20045;-72
2021/12/13 10:43:51;;;;;;;57.92;3.95;;;;;;;4.89;100.00;97644.22;5056382;28;20045;-72
2021/12/13 10:46:42;;;;;;;90.20;8.27;;;;;;;4.69;100.00;97634.19;5059272;28;20040;-71
2021/12/13 10:49:14;;;;;;;140.00;6.07;;;;;;;4.72;100.00;97628.50;5058399;28;20051;-73
2021/12/13 10:51:43;;;;;;;182.98;9.05;;;;;;;4.79;100.00;97628.59;5060595;28;20024;-72
2021/12/13 10:54:13;;;;;;;42.33;3.90;;;;;;;4.99;100.00;97632.34;5060201;28;20056;-74
2021/12/13 10:56:43;;;;;;;77.45;4.78;;;;;;;5.13;100.00;97643.13;5057925;28;20534;-72
2021/12/13 10:59:19;;;;;;;23.98;4.10;;;;;;;5.26;100.00;97630.84;5057684;28;20029;-72
2021/12/13 11:01:49;;;;;;;10.13;3.80;;;;;;;5.41;100.00;97640.59;5057308;28;20123;-72
2021/12/13 11:04:19;;;;;;;12.13;4.28;;;;;;;5.47;100.00;97634.56;5055061;28;20036;-72
2021/12/13 11:06:46;;;;;;;13.70;5.00;;;;;;;5.55;100.00;97634.44;5055401;28;20032;-72
2021/12/13 11:09:18;;;;;;;11.18;4.40;;;;;;;5.62;100.00;97638.00;5057049;28;20158;-72
2021/12/13 11:11:49;;;;;;;13.38;4.10;;;;;;;5.68;100.00;97639.91;5054715;28;20028;-72
2021/12/13 11:14:20;;;;;;;12.18;5.07;;;;;;;5.77;100.00;97640.59;5058915;28;20036;-71
2021/12/13 11:16:53;;;;;;;12.90;5.43;;;;;;;5.72;100.00;97635.84;5056440;28;20280;-72
2021/12/13 11:19:29;;;;;;;10.68;4.78;;;;;;;5.79;100.00;97638.56;5057182;28;20103;-72
2021/12/13 11:22:01;;;;;;;13.90;7.20;;;;;;;5.81;100.00;97637.34;5058359;28;20043;-72
2021/12/13 11:24:32;;;;;;;8.43;4.00;;;;;;;5.78;100.00;97634.25;5059555;28;20040;-73
2021/12/13 11:27:02;;;;;;;8.68;3.92;;;;;;;5.81;100.00;97629.38;5057835;28;20048;-72
2021/12/13 11:29:28;;;;;;;8.13;3.63;;;;;;;5.91;100.00;97623.78;5058352;28;20348;-72
2021/12/13 11:31:55;;;;;;;9.25;4.05;;;;;;;6.04;100.00;97634.53;5052078;28;20471;-73
2021/12/13 11:35:10;;;;;;;10.15;4.38;;;;;;;6.11;100.00;97621.31;5054636;28;20046;-72
2021/12/13 11:37:55;;;;;;;11.48;4.20;;;;;;;6.21;100.00;97631.59;5055270;28;20029;-74
2021/12/13 11:40:34;;;;;;;9.15;4.00;;;;;;;6.29;100.00;97629.63;5056335;28;20079;-72
2021/12/13 11:43:37;;;;;;;12.35;5.35;;;;;;;6.35;100.00;97626.19;5057041;28;20040;-72
2021/12/13 11:46:27;;;;;;;12.43;4.32;;;;;;;6.37;100.00;97628.66;5056679;28;20130;-72
2021/12/13 11:49:43;;;;;;;8.93;4.32;;;;;;;6.42;100.00;97627.06;5062210;28;20136;-72
2021/12/13 11:52:42;;;;;;;9.10;3.70;;;;;;;6.39;100.00;97624.00;5028618;28;20098;-72
2021/12/13 11:55:28;;;;;;;8.07;3.53;;;;;;;6.26;100.00;97622.03;5056042;28;20594;-71
2021/12/13 11:58:29;;;;;;;9.02;4.28;;;;;;;6.41;100.00;97614.78;5056713;28;20048;-73
2021/12/13 12:01:14;;;;;;;;;;;;;;;6.64;100.00;97609.22;5054122;28;20045;-72
2021/12/13 12:04:02;;;;;;;6.25;3.55;;;;;;;6.73;100.00;97607.22;5059489;28;19966;-72
2021/12/13 12:07:06;;;;;;;6.13;3.00;;;;;;;6.66;100.00;97606.34;5057521;28;20040;-72
2021/12/13 12:10:08;;;;;;;8.48;3.15;;;;;;;6.70;100.00;97612.94;4999314;28;20114;-72
2021/12/13 12:12:46;;;;;;;8.40;2.30;;;;;;;6.53;100.00;97606.25;5054948;28;20059;-72
2021/12/13 12:15:12;;;;;;;9.38;2.25;;;;;;;6.61;100.00;97614.91;5058742;28;20036;-72
2021/12/13 12:17:38;;;;;;;6.97;3.78;;;;;;;6.76;100.00;97603.34;5055806;28;20029;-72
2021/12/13 12:20:16;;;;;;;7.32;4.18;;;;;;;6.60;100.00;97613.28;5057340;28;20547;-72
2021/12/13 12:22:50;;;;;;;5.50;2.20;;;;;;;6.55;100.00;97610.41;5057270;28;20078;-71